Time;durP1;ratioP1;P1;durP2;ratioP2;P2;SDS_P1;SDS_P2;PMS_P1;PMS_P2;Temp;Humidity;BMP_temperature;BMP_pressure;BME280_temperature;BME280_humidity;BME280_pressure;Samples;Min_cycle;Max_cycle;Signal;HPM_P1;HPM_P2
2024/02/21 00:03:59;;;;;;;30.60;24.63;;;;;;;;;;10415022;27;20090;-63
2024/02/21 00:08:57;;;;;;;26.80;22.60;;;;;;;;;;10416093;27;20501;-62
2024/02/21 00:13:56;;;;;;;26.85;22.77;;;;;;;;;;10418237;27;20062;-63
2024/02/21 00:18:55;;;;;;;26.80;22.02;;;;;;;;;;10417837;27;20079;-63
2024/02/21 00:23:54;;;;;;;24.25;20.83;;;;;;;;;;10414497;27;20578;-62
2024/02/21 00:28:52;;;;;;;26.55;21.17;;;;;;;;;;10418112;27;20538;-63
2024/02/21 00:33:50;;;;;;;27.33;22.10;;;;;;;;;;10418521;27;20059;-63
2024/02/21 00:38:50;;;;;;;29.00;22.48;;;;;;;;;;10417945;27;20443;-62
2024/02/21 00:43:50;;;;;;;24.30;20.92;;;;;;;;;;10416581;27;20063;-62
2024/02/21 00:48:49;;;;;;;24.67;20.45;;;;;;;;;;10417870;27;20082;-63
2024/02/21 00:53:48;;;;;;;25.55;19.33;;;;;;;;;;10414791;27;20089;-63
2024/02/21 00:58:47;;;;;;;26.08;20.73;;;;;;;;;;10409105;27;20619;-63
2024/02/21 01:03:46;;;;;;;23.55;20.70;;;;;;;;;;10415782;27;20279;-63
2024/02/21 01:08:44;;;;;;;28.65;21.10;;;;;;;;;;10417960;27;20484;-62
2024/02/21 01:13:43;;;;;;;27.35;20.67;;;;;;;;;;10411782;27;20055;-62
2024/02/21 01:18:42;;;;;;;24.63;19.92;;;;;;;;;;10412550;27;20079;-63
2024/02/21 01:23:41;;;;;;;27.25;20.63;;;;;;;;;;10412609;27;20067;-63
2024/02/21 01:28:39;;;;;;;23.25;19.17;;;;;;;;;;10416537;27;20071;-63
2024/02/21 01:33:38;;;;;;;26.73;21.50;;;;;;;;;;10413725;27;20063;-62
2024/02/21 01:38:38;;;;;;;23.48;19.55;;;;;;;;;;10416207;27;20066;-62
2024/02/21 01:43:36;;;;;;;27.13;20.50;;;;;;;;;;10414337;27;20469;-62
2024/02/21 01:48:35;;;;;;;24.67;19.50;;;;;;;;;;10413121;27;20520;-62
2024/02/21 01:53:36;;;;;;;29.00;20.83;;;;;;;;;;10413289;27;20551;-63
2024/02/21 01:58:37;;;;;;;24.67;19.75;;;;;;;;;;10414778;27;20078;-62
2024/02/21 02:03:36;;;;;;;23.63;19.13;;;;;;;;;;10405273;27;20066;-62
2024/02/21 02:08:34;;;;;;;25.55;20.02;;;;;;;;;;10408017;27;20074;-63
2024/02/21 02:13:33;;;;;;;24.52;18.83;;;;;;;;;;10412362;27;20083;-62
2024/02/21 02:18:32;;;;;;;28.83;20.17;;;;;;;;;;10411563;27;20539;-63
2024/02/21 02:23:32;;;;;;;23.30;19.52;;;;;;;;;;10411658;27;20067;-62
2024/02/21 02:28:31;;;;;;;24.45;19.98;;;;;;;;;;10411362;27;20116;-62
2024/02/21 02:33:29;;;;;;;24.85;21.13;;;;;;;;;;10414159;27;20067;-62
2024/02/21 02:38:27;;;;;;;25.20;20.20;;;;;;;;;;10414803;27;20089;-62
2024/02/21 02:43:27;;;;;;;26.40;20.15;;;;;;;;;;10409869;28;20078;-61
2024/02/21 02:48:25;;;;;;;30.98;22.70;;;;;;;;;;10413767;28;20074;-62
2024/02/21 02:53:23;;;;;;;31.30;20.58;;;;;;;;;;10411282;28;20066;-62
2024/02/21 02:58:22;;;;;;;26.58;20.08;;;;;;;;;;10412842;28;20531;-63
2024/02/21 03:03:21;;;;;;;26.60;20.27;;;;;;;;;;10412062;28;20070;-63
2024/02/21 03:08:19;;;;;;;24.23;20.15;;;;;;;;;;10413565;28;20071;-63
2024/02/21 03:13:18;;;;;;;27.83;20.70;;;;;;;;;;10412476;28;20066;-62
2024/02/21 03:18:16;;;;;;;27.38;20.45;;;;;;;;;;10404107;28;20531;-62
2024/02/21 03:23:16;;;;;;;25.25;19.73;;;;;;;;;;10410533;28;20075;-63
2024/02/21 03:28:14;;;;;;;25.77;20.23;;;;;;;;;;10413790;28;20077;-63
2024/02/21 03:33:12;;;;;;;24.75;19.33;;;;;;;;;;10412536;28;20064;-62
2024/02/21 03:38:11;;;;;;;26.70;20.83;;;;;;;;;;10417647;27;20074;-62
2024/02/21 03:43:10;;;;;;;26.52;20.92;;;;;;;;;;10416313;27;20063;-62
2024/02/21 03:48:08;;;;;;;29.40;22.17;;;;;;;;;;10419990;27;20074;-62
2024/02/21 03:53:07;;;;;;;28.08;21.00;;;;;;;;;;10418629;27;20649;-62
2024/02/21 03:58:05;;;;;;;24.30;20.42;;;;;;;;;;10419622;27;20063;-62
2024/02/21 04:03:05;;;;;;;26.50;20.83;;;;;;;;;;10418314;27;20073;-63
2024/02/21 04:08:05;;;;;;;24.88;20.25;;;;;;;;;;10420827;27;20153;-63
2024/02/21 04:13:03;;;;;;;22.75;19.05;;;;;;;;;;10418382;27;20542;-62
2024/02/21 04:18:01;;;;;;;32.40;19.70;;;;;;;;;;10421154;27;20097;-62
2024/02/21 04:23:01;;;;;;;28.95;21.08;;;;;;;;;;10373028;28;20561;-64
2024/02/21 04:27:59;;;;;;;25.17;20.05;;;;;;;;;;10375878;28;20060;-64
2024/02/21 04:32:59;;;;;;;26.33;19.83;;;;;;;;;;10377698;27;20079;-63
2024/02/21 04:37:57;;;;;;;25.33;20.38;;;;;;;;;;10372020;28;20492;-63
2024/02/21 04:42:57;;;;;;;24.25;19.15;;;;;;;;;;10375294;28;20392;-63
2024/02/21 04:47:55;;;;;;;25.95;20.42;;;;;;;;;;10372534;28;20067;-61
2024/02/21 04:52:54;;;;;;;34.88;21.65;;;;;;;;;;10371901;28;20070;-61
2024/02/21 04:57:52;;;;;;;24.02;19.52;;;;;;;;;;10390354;27;20071;-61
2024/02/21 05:02:52;;;;;;;25.60;19.27;;;;;;;;;;10371723;28;20078;-62
2024/02/21 05:07:50;;;;;;;26.25;20.38;;;;;;;;;;10374603;28;20501;-62
2024/02/21 05:12:48;;;;;;;25.65;21.38;;;;;;;;;;10375601;28;20067;-62
2024/02/21 05:17:47;;;;;;;23.05;18.92;;;;;;;;;;10375312;28;20067;-62
2024/02/21 05:22:46;;;;;;;24.92;19.65;;;;;;;;;;10413646;27;20075;-62
2024/02/21 05:27:45;;;;;;;23.25;17.67;;;;;;;;;;10415212;27;20642;-62
2024/02/21 05:32:43;;;;;;;22.48;18.58;;;;;;;;;;10414833;27;20065;-62
2024/02/21 05:37:42;;;;;;;25.45;19.58;;;;;;;;;;10416281;27;20081;-62
2024/02/21 05:42:41;;;;;;;23.33;18.58;;;;;;;;;;10411135;27;20086;-62
2024/02/21 05:47:39;;;;;;;23.08;18.98;;;;;;;;;;10420733;27;20538;-62
2024/02/21 05:52:38;;;;;;;24.65;18.90;;;;;;;;;;10422460;27;20089;-62
2024/02/21 05:57:36;;;;;;;22.50;19.65;;;;;;;;;;10404608;27;20071;-62
2024/02/21 06:02:35;;;;;;;23.73;19.77;;;;;;;;;;10410699;27;20082;-62
2024/02/21 06:07:34;;;;;;;23.67;19.40;;;;;;;;;;10418135;27;20071;-63
2024/02/21 06:12:32;;;;;;;24.08;19.30;;;;;;;;;;10415389;27;20067;-62
2024/02/21 06:17:30;;;;;;;24.35;19.73;;;;;;;;;;10421241;27;20071;-63
2024/02/21 06:22:31;;;;;;;23.02;18.98;;;;;;;;;;10413192;27;20508;-63
2024/02/21 06:27:29;;;;;;;28.10;19.88;;;;;;;;;;10415964;27;20070;-62
2024/02/21 06:32:27;;;;;;;21.17;17.20;;;;;;;;;;10418848;27;20089;-61
2024/02/21 06:37:25;;;;;;;26.65;18.83;;;;;;;;;;10412109;27;20551;-62
2024/02/21 06:42:29;;;;;;;25.40;16.88;;;;;;;;;;10407351;27;20079;-61
2024/02/21 06:47:27;;;;;;;22.65;19.08;;;;;;;;;;10416263;28;20063;-62
2024/02/21 06:52:26;;;;;;;21.85;19.52;;;;;;;;;;10410714;28;20446;-61
2024/02/21 06:57:25;;;;;;;25.35;22.23;;;;;;;;;;10408360;28;20059;-64
2024/02/21 07:02:24;;;;;;;30.50;19.25;;;;;;;;;;10413803;28;20067;-63
2024/02/21 07:07:23;;;;;;;24.30;18.17;;;;;;;;;;10414038;28;20072;-63
2024/02/21 07:12:21;;;;;;;17.77;15.68;;;;;;;;;;10413973;27;20074;-63
2024/02/21 07:17:19;;;;;;;21.27;18.17;;;;;;;;;;10423106;27;20076;-63
2024/02/21 07:22:19;;;;;;;22.77;17.80;;;;;;;;;;10424312;27;20078;-61
2024/02/21 07:27:17;;;;;;;22.60;18.58;;;;;;;;;;10425050;27;20070;-63
2024/02/21 07:32:15;;;;;;;23.73;17.92;;;;;;;;;;10425553;27;20335;-63
2024/02/21 07:37:14;;;;;;;23.40;19.17;;;;;;;;;;10422883;27;20075;-63
2024/02/21 07:42:14;;;;;;;21.30;18.42;;;;;;;;;;10421472;27;20075;-62
2024/02/21 07:47:12;;;;;;;24.00;20.40;;;;;;;;;;10420732;27;20067;-64
2024/02/21 07:52:10;;;;;;;25.08;20.65;;;;;;;;;;10420177;27;20074;-63
2024/02/21 07:57:09;;;;;;;21.88;18.85;;;;;;;;;;10423170;27;20078;-62
2024/02/21 08:02:08;;;;;;;24.58;19.45;;;;;;;;;;10422017;27;20071;-63
2024/02/21 08:07:07;;;;;;;21.30;17.15;;;;;;;;;;10419579;27;20078;-63
2024/02/21 08:12:05;;;;;;;21.90;17.20;;;;;;;;;;10414830;27;20508;-63
2024/02/21 08:17:04;;;;;;;21.60;17.67;;;;;;;;;;10422859;27;20071;-63
2024/02/21 08:22:04;;;;;;;20.55;17.75;;;;;;;;;;10417315;27;20116;-62
2024/02/21 08:27:02;;;;;;;20.80;17.48;;;;;;;;;;10420185;27;20079;-64
2024/02/21 08:32:01;;;;;;;21.02;17.92;;;;;;;;;;10403209;27;20078;-62
2024/02/21 08:36:59;;;;;;;19.13;17.13;;;;;;;;;;10425256;27;20067;-63
2024/02/21 08:41:59;;;;;;;19.90;17.27;;;;;;;;;;10423272;27;20058;-63
2024/02/21 08:46:57;;;;;;;22.67;16.65;;;;;;;;;;10419643;27;20067;-62
2024/02/21 08:51:55;;;;;;;23.00;20.42;;;;;;;;;;10422903;27;20090;-62
2024/02/21 08:56:54;;;;;;;19.58;17.55;;;;;;;;;;10422715;27;20082;-62
2024/02/21 09:01:54;;;;;;;26.33;23.08;;;;;;;;;;10420351;27;20062;-63
2024/02/21 09:06:52;;;;;;;20.50;17.98;;;;;;;;;;10425328;27;20086;-63
2024/02/21 09:11:51;;;;;;;19.08;16.67;;;;;;;;;;10423140;27;20063;-63
2024/02/21 09:16:49;;;;;;;19.92;15.77;;;;;;;;;;10420342;27;20547;-63
2024/02/21 09:21:49;;;;;;;19.67;17.13;;;;;;;;;;10419979;27;20544;-63
2024/02/21 09:26:47;;;;;;;27.77;20.92;;;;;;;;;;10421130;27;20075;-63
2024/02/21 09:31:47;;;;;;;28.52;22.58;;;;;;;;;;10419270;27;20066;-64
2024/02/21 09:36:46;;;;;;;22.52;19.83;;;;;;;;;;10400655;27;20074;-63
2024/02/21 09:41:46;;;;;;;23.38;19.98;;;;;;;;;;10419825;27;20067;-62
2024/02/21 09:46:48;;;;;;;22.88;18.25;;;;;;;;;;10419408;27;20075;-62
2024/02/21 09:51:48;;;;;;;24.77;20.63;;;;;;;;;;10412289;27;20074;-62
2024/02/21 09:56:48;;;;;;;23.98;19.50;;;;;;;;;;10422160;27;20082;-62
2024/02/21 10:01:46;;;;;;;31.92;19.23;;;;;;;;;;10417654;27;20071;-62
2024/02/21 10:06:45;;;;;;;32.03;25.17;;;;;;;;;;10419207;27;20504;-62
2024/02/21 10:11:44;;;;;;;31.98;22.52;;;;;;;;;;10420188;27;20063;-63
2024/02/21 10:16:44;;;;;;;28.02;22.80;;;;;;;;;;10399113;27;20444;-62
2024/02/21 10:21:42;;;;;;;51.65;34.28;;;;;;;;;;10416238;27;20078;-63
2024/02/21 10:26:40;;;;;;;27.00;20.75;;;;;;;;;;10414073;27;20521;-64
2024/02/21 10:31:40;;;;;;;91.75;57.80;;;;;;;;;;10416751;27;20078;-64
2024/02/21 10:36:39;;;;;;;41.95;31.08;;;;;;;;;;10419534;27;20154;-63
2024/02/21 10:41:38;;;;;;;28.80;20.45;;;;;;;;;;10416869;27;20072;-63
2024/02/21 10:46:36;;;;;;;33.83;24.33;;;;;;;;;;10418368;28;20082;-63
2024/02/21 10:51:36;;;;;;;31.30;22.25;;;;;;;;;;10424014;28;20071;-63
2024/02/21 10:56:37;;;;;;;51.80;44.05;;;;;;;;;;10420971;28;20062;-62
2024/02/21 11:01:36;;;;;;;37.50;29.35;;;;;;;;;;10418246;28;20074;-63
2024/02/21 11:06:36;;;;;;;42.55;32.45;;;;;;;;;;10414267;28;20082;-63
2024/02/21 11:11:37;;;;;;;35.78;29.23;;;;;;;;;;10417600;28;20063;-62
2024/02/21 11:16:41;;;;;;;34.92;26.27;;;;;;;;;;10417736;28;20063;-62
2024/02/21 11:21:41;;;;;;;35.42;26.13;;;;;;;;;;10415287;28;20086;-63
2024/02/21 11:26:42;;;;;;;32.30;24.52;;;;;;;;;;10416256;28;20172;-63
2024/02/21 11:31:41;;;;;;;36.85;27.75;;;;;;;;;;10417277;28;20074;-64
2024/02/21 11:36:47;;;;;;;23.58;19.38;;;;;;;;;;10416783;28;20062;-63
2024/02/21 11:41:48;;;;;;;24.17;20.08;;;;;;;;;;10415279;28;20452;-63
2024/02/21 11:46:46;;;;;;;22.67;19.63;;;;;;;;;;10417273;28;20078;-63
2024/02/21 11:51:45;;;;;;;23.85;20.30;;;;;;;;;;10416269;28;20067;-63
2024/02/21 11:56:43;;;;;;;25.58;22.48;;;;;;;;;;10403391;27;20444;-62
2024/02/21 12:01:42;;;;;;;26.60;22.65;;;;;;;;;;10424091;27;20160;-62
2024/02/21 12:06:41;;;;;;;21.73;18.02;;;;;;;;;;10423940;27;20066;-63
2024/02/21 12:11:39;;;;;;;21.77;18.90;;;;;;;;;;10426508;27;20274;-62
2024/02/21 12:16:37;;;;;;;25.88;20.95;;;;;;;;;;10421071;27;20067;-62
2024/02/21 12:21:37;;;;;;;21.42;17.88;;;;;;;;;;10423344;27;20094;-62
2024/02/21 12:26:36;;;;;;;26.98;20.30;;;;;;;;;;10424647;27;20081;-62
2024/02/21 12:31:35;;;;;;;20.90;18.42;;;;;;;;;;10422531;27;20067;-62
2024/02/21 12:36:34;;;;;;;19.15;16.33;;;;;;;;;;10423208;27;20070;-62
2024/02/21 12:41:35;;;;;;;28.90;21.42;;;;;;;;;;10422826;27;20043;-63
2024/02/21 12:46:33;;;;;;;27.35;21.83;;;;;;;;;;10418751;27;20067;-62
2024/02/21 12:51:32;;;;;;;25.30;20.50;;;;;;;;;;10418224;27;20308;-63
2024/02/21 12:56:31;;;;;;;25.95;19.30;;;;;;;;;;10422225;27;20063;-63
2024/02/21 13:01:30;;;;;;;50.17;29.23;;;;;;;;;;10428427;27;20070;-63
2024/02/21 13:06:29;;;;;;;65.63;50.97;;;;;;;;;;10417342;27;20489;-62
2024/02/21 13:11:30;;;;;;;26.85;21.42;;;;;;;;;;10420706;27;20071;-62
2024/02/21 13:16:31;;;;;;;21.23;18.77;;;;;;;;;;10421343;27;20067;-62
2024/02/21 13:21:29;;;;;;;18.95;16.83;;;;;;;;;;10421375;27;20499;-63
2024/02/21 13:26:27;;;;;;;23.15;18.13;;;;;;;;;;10420405;27;20525;-62
2024/02/21 13:31:26;;;;;;;30.83;25.17;;;;;;;;;;10421729;27;20078;-63
2024/02/21 13:36:26;;;;;;;34.50;30.88;;;;;;;;;;10420680;27;20067;-63
2024/02/21 13:41:24;;;;;;;22.20;19.02;;;;;;;;;;10409730;27;20063;-62
2024/02/21 13:46:22;;;;;;;20.88;18.73;;;;;;;;;;10420846;27;20079;-62
2024/02/21 13:51:20;;;;;;;19.80;16.10;;;;;;;;;;10418772;27;20067;-62
2024/02/21 13:56:20;;;;;;;17.30;15.55;;;;;;;;;;10418639;27;20059;-63
2024/02/21 14:01:18;;;;;;;23.65;21.13;;;;;;;;;;10417337;27;20528;-62
2024/02/21 14:06:17;;;;;;;21.05;17.67;;;;;;;;;;10418519;27;20102;-62
2024/02/21 14:11:15;;;;;;;23.30;19.48;;;;;;;;;;10417056;27;20067;-62
2024/02/21 14:16:15;;;;;;;19.60;16.13;;;;;;;;;;10416949;27;20093;-63
2024/02/21 14:21:13;;;;;;;18.92;13.68;;;;;;;;;;10416933;27;20085;-62
2024/02/21 14:26:12;;;;;;;29.77;22.58;;;;;;;;;;10408379;27;20748;-62
2024/02/21 14:31:10;;;;;;;22.65;20.23;;;;;;;;;;10415475;27;20078;-63
2024/02/21 14:36:11;;;;;;;20.63;18.15;;;;;;;;;;10414862;27;20598;-63
2024/02/21 14:41:11;;;;;;;27.95;21.80;;;;;;;;;;10417600;27;20063;-63
2024/02/21 14:46:10;;;;;;;22.98;19.08;;;;;;;;;;10417165;28;20071;-63
2024/02/21 14:51:09;;;;;;;57.10;38.80;;;;;;;;;;10411940;28;20095;-61
2024/02/21 14:56:14;;;;;;;34.95;23.35;;;;;;;;;;10412992;28;20437;-61
2024/02/21 15:01:13;;;;;;;53.92;33.00;;;;;;;;;;10405285;28;20067;-61
2024/02/21 15:06:13;;;;;;;26.20;21.65;;;;;;;;;;10416024;28;20074;-61
2024/02/21 15:11:11;;;;;;;26.52;20.85;;;;;;;;;;10414627;28;20072;-61
2024/02/21 15:16:09;;;;;;;34.78;26.58;;;;;;;;;;10417248;28;20531;-63
2024/02/21 15:21:13;;;;;;;31.13;23.20;;;;;;;;;;10395829;28;20078;-63
2024/02/21 15:26:13;;;;;;;29.05;22.33;;;;;;;;;;10410328;28;20071;-63
2024/02/21 15:31:21;;;;;;;26.40;20.17;;;;;;;;;;10415092;27;20457;-63
2024/02/21 15:36:20;;;;;;;24.98;18.45;;;;;;;;;;10420419;27;20071;-63
2024/02/21 15:41:21;;;;;;;26.48;18.60;;;;;;;;;;10422646;27;20059;-62
2024/02/21 15:46:19;;;;;;;22.80;15.00;;;;;;;;;;10426008;27;20074;-61
2024/02/21 15:51:19;;;;;;;25.45;17.08;;;;;;;;;;10423908;27;20536;-61
2024/02/21 15:56:17;;;;;;;29.33;22.05;;;;;;;;;;10424801;27;20063;-62
2024/02/21 16:01:17;;;;;;;34.33;25.40;;;;;;;;;;10424570;27;20073;-62
2024/02/21 16:06:15;;;;;;;28.60;21.95;;;;;;;;;;10412870;27;20079;-62
2024/02/21 16:11:15;;;;;;;24.65;17.30;;;;;;;;;;10424034;27;20070;-63
2024/02/21 16:16:14;;;;;;;21.92;18.10;;;;;;;;;;10424441;27;20485;-63
2024/02/21 16:21:15;;;;;;;20.23;15.98;;;;;;;;;;10422603;27;20602;-62
2024/02/21 16:26:13;;;;;;;26.27;18.45;;;;;;;;;;10423674;27;20454;-62
2024/02/21 16:31:12;;;;;;;26.75;21.35;;;;;;;;;;10422310;27;20058;-63
2024/02/21 16:36:23;;;;;;;23.27;17.80;;;;;;;;;;10423733;27;20089;-63
2024/02/21 16:41:21;;;;;;;20.38;15.45;;;;;;;;;;10423921;27;20070;-63
2024/02/21 16:46:20;;;;;;;20.63;18.50;;;;;;;;;;10422106;27;20082;-63
2024/02/21 16:51:19;;;;;;;35.65;31.95;;;;;;;;;;10422445;27;20542;-66
2024/02/21 16:56:20;;;;;;;18.30;16.13;;;;;;;;;;10422515;27;20070;-65
2024/02/21 17:01:18;;;;;;;19.15;14.40;;;;;;;;;;10420874;27;20067;-63
2024/02/21 17:06:16;;;;;;;15.40;13.75;;;;;;;;;;10423966;27;20517;-63
2024/02/21 17:11:16;;;;;;;21.38;13.25;;;;;;;;;;10422090;27;20477;-63
2024/02/21 17:16:16;;;;;;;17.50;13.05;;;;;;;;;;10422799;27;20074;-63
2024/02/21 17:21:14;;;;;;;19.95;14.35;;;;;;;;;;10422385;27;20089;-63
2024/02/21 17:26:13;;;;;;;23.17;15.73;;;;;;;;;;10420650;27;20067;-63
2024/02/21 17:31:11;;;;;;;17.55;14.52;;;;;;;;;;10417430;27;20067;-62
2024/02/21 17:36:11;;;;;;;18.30;14.50;;;;;;;;;;10420780;27;20081;-63
2024/02/21 17:41:10;;;;;;;18.20;14.05;;;;;;;;;;10420353;27;20074;-63
2024/02/21 17:46:09;;;;;;;22.45;20.13;;;;;;;;;;10419641;27;20074;-64
2024/02/21 17:51:07;;;;;;;20.20;16.63;;;;;;;;;;10418087;27;20445;-64
2024/02/21 17:56:07;;;;;;;17.55;15.45;;;;;;;;;;10416169;27;20071;-63
2024/02/21 18:01:06;;;;;;;15.95;14.25;;;;;;;;;;10412858;27;20083;-64
2024/02/21 18:06:04;;;;;;;16.67;13.85;;;;;;;;;;10405393;27;20520;-62
2024/02/21 18:11:03;;;;;;;16.80;12.65;;;;;;;;;;10416421;27;20094;-63
2024/02/21 18:16:04;;;;;;;14.70;11.82;;;;;;;;;;10416184;27;20075;-63
2024/02/21 18:21:02;;;;;;;17.90;14.25;;;;;;;;;;10415021;27;20079;-63
2024/02/21 18:26:01;;;;;;;16.98;14.07;;;;;;;;;;10413477;27;20079;-63
2024/02/21 18:31:00;;;;;;;16.42;13.75;;;;;;;;;;10417153;27;20126;-63
2024/02/21 18:36:00;;;;;;;16.08;13.80;;;;;;;;;;10416256;27;20473;-63
2024/02/21 18:40:58;;;;;;;16.60;13.15;;;;;;;;;;10406770;27;20090;-64
2024/02/21 18:45:57;;;;;;;15.95;13.27;;;;;;;;;;10417740;27;20482;-63
2024/02/21 18:50:55;;;;;;;15.88;13.30;;;;;;;;;;10412255;27;20085;-63
2024/02/21 18:55:55;;;;;;;14.80;13.30;;;;;;;;;;10413959;28;20070;-62
2024/02/21 19:00:53;;;;;;;17.92;13.32;;;;;;;;;;10404114;28;20078;-62
2024/02/21 19:05:51;;;;;;;16.13;12.95;;;;;;;;;;10411740;27;20071;-63
2024/02/21 19:10:50;;;;;;;17.70;13.90;;;;;;;;;;10424058;27;20476;-63
2024/02/21 19:15:50;;;;;;;14.57;12.25;;;;;;;;;;10420702;27;20075;-63
2024/02/21 19:20:48;;;;;;;14.15;12.55;;;;;;;;;;10434138;27;20070;-63
2024/02/21 19:25:46;;;;;;;15.18;12.70;;;;;;;;;;10419820;27;20074;-63
2024/02/21 19:30:45;;;;;;;13.35;11.80;;;;;;;;;;10435628;27;20104;-64
2024/02/21 19:35:45;;;;;;;12.52;10.80;;;;;;;;;;10420721;27;20485;-64
2024/02/21 19:40:43;;;;;;;11.95;10.70;;;;;;;;;;10420287;27;20153;-62
2024/02/21 19:45:42;;;;;;;20.80;15.32;;;;;;;;;;10420490;27;20067;-62
2024/02/21 19:50:41;;;;;;;18.65;16.52;;;;;;;;;;10419856;27;20516;-62
2024/02/21 19:55:40;;;;;;;22.90;18.55;;;;;;;;;;10419358;27;20088;-62
2024/02/21 20:00:39;;;;;;;21.38;18.70;;;;;;;;;;10410764;27;20070;-63
2024/02/21 20:05:37;;;;;;;22.25;18.55;;;;;;;;;;10420157;27;20060;-63
2024/02/21 20:10:36;;;;;;;21.42;18.20;;;;;;;;;;10404945;27;20500;-63
2024/02/21 20:15:35;;;;;;;18.23;16.30;;;;;;;;;;10428188;27;20606;-62
2024/02/21 20:20:34;;;;;;;24.60;18.58;;;;;;;;;;10427990;27;20090;-62
2024/02/21 20:25:33;;;;;;;21.83;17.98;;;;;;;;;;10423303;27;20102;-61
2024/02/21 20:30:31;;;;;;;27.58;20.60;;;;;;;;;;10428149;27;20101;-62
2024/02/21 20:35:31;;;;;;;24.08;19.25;;;;;;;;;;10421635;27;20082;-62
2024/02/21 20:40:29;;;;;;;22.95;17.85;;;;;;;;;;10417088;27;20157;-63
2024/02/21 20:45:28;;;;;;;23.38;16.42;;;;;;;;;;10416664;27;20488;-62
2024/02/21 20:50:27;;;;;;;22.67;17.75;;;;;;;;;;10420271;27;20069;-61
2024/02/21 20:55:27;;;;;;;21.65;16.95;;;;;;;;;;10419917;27;20533;-63
2024/02/21 21:00:25;;;;;;;27.58;19.27;;;;;;;;;;10410332;27;20554;-63
2024/02/21 21:05:24;;;;;;;20.98;18.42;;;;;;;;;;10413524;27;20098;-63
2024/02/21 21:10:23;;;;;;;22.23;16.55;;;;;;;;;;10416501;27;20078;-63
2024/02/21 21:15:23;;;;;;;16.30;13.63;;;;;;;;;;10411443;27;20077;-63
2024/02/21 21:20:25;;;;;;;16.48;13.48;;;;;;;;;;10413114;27;20090;-63
2024/02/21 21:25:24;;;;;;;17.23;14.60;;;;;;;;;;10417960;27;20078;-63
2024/02/21 21:30:23;;;;;;;25.13;17.67;;;;;;;;;;10417930;27;20078;-62
2024/02/21 21:35:22;;;;;;;33.38;23.92;;;;;;;;;;10416591;27;20093;-63
2024/02/21 21:40:21;;;;;;;25.55;20.48;;;;;;;;;;10408757;27;20066;-63
2024/02/21 21:45:20;;;;;;;28.17;20.15;;;;;;;;;;10410288;27;20449;-63
2024/02/21 21:50:19;;;;;;;18.83;15.65;;;;;;;;;;10410706;27;20687;-63
2024/02/21 21:55:17;;;;;;;46.78;26.88;;;;;;;;;;10411338;27;20520;-62
2024/02/21 22:00:16;;;;;;;18.30;15.02;;;;;;;;;;10392101;27;20086;-62
2024/02/21 22:05:14;;;;;;;19.10;14.18;;;;;;;;;;10409670;27;20067;-62
2024/02/21 22:10:14;;;;;;;19.60;13.77;;;;;;;;;;10414372;27;20078;-62
2024/02/21 22:15:13;;;;;;;16.17;13.20;;;;;;;;;;10413533;27;20066;-62
2024/02/21 22:20:11;;;;;;;13.50;11.23;;;;;;;;;;10393325;27;20075;-62
2024/02/21 22:25:10;;;;;;;10.57;9.48;;;;;;;;;;10413073;27;20062;-63
2024/02/21 22:30:10;;;;;;;12.18;10.48;;;;;;;;;;10414878;27;20090;-63
2024/02/21 22:35:09;;;;;;;9.93;8.57;;;;;;;;;;10410155;27;20081;-63
2024/02/21 22:40:08;;;;;;;14.57;10.40;;;;;;;;;;10410773;27;20072;-63
2024/02/21 22:45:07;;;;;;;12.43;10.68;;;;;;;;;;10412588;27;20062;-63
2024/02/21 22:50:07;;;;;;;11.40;10.30;;;;;;;;;;10411920;28;20071;-63
2024/02/21 22:55:05;;;;;;;10.52;9.43;;;;;;;;;;10412192;28;20067;-62
2024/02/21 23:00:06;;;;;;;11.20;9.50;;;;;;;;;;10406331;28;20086;-62
2024/02/21 23:05:06;;;;;;;9.48;8.35;;;;;;;;;;10410101;28;20531;-63
2024/02/21 23:10:04;;;;;;;10.50;8.95;;;;;;;;;;10411131;28;20072;-62
2024/02/21 23:15:03;;;;;;;9.10;7.90;;;;;;;;;;10413095;28;20071;-62
2024/02/21 23:20:04;;;;;;;10.05;8.40;;;;;;;;;;10413563;28;20085;-62
2024/02/21 23:25:04;;;;;;;9.77;8.70;;;;;;;;;;10413889;28;20067;-62
2024/02/21 23:30:03;;;;;;;9.50;8.50;;;;;;;;;;10413289;28;20543;-62
2024/02/21 23:35:01;;;;;;;8.82;7.93;;;;;;;;;;10413350;28;20066;-62
2024/02/21 23:39:59;;;;;;;11.10;8.00;;;;;;;;;;10412646;28;20083;-62
2024/02/21 23:44:59;;;;;;;9.95;8.25;;;;;;;;;;10404857;28;20699;-63
2024/02/21 23:49:57;;;;;;;11.30;9.48;;;;;;;;;;10403088;28;20081;-63
2024/02/21 23:54:56;;;;;;;10.80;9.02;;;;;;;;;;10419627;27;20066;-63
2024/02/21 23:59:55;;;;;;;10.40;9.30;;;;;;;;;;10419516;27;20075;-62
